createdAt,value
2022-08-17T00:02:22.409Z,22.13
2022-08-17T00:05:30.180Z,21.84
2022-08-17T00:08:38.004Z,22.14
2022-08-17T00:11:43.206Z,22.48
2022-08-17T00:15:06.286Z,22.63
2022-08-17T00:19:01.979Z,22.66
2022-08-17T00:22:00.006Z,22.03
2022-08-17T00:24:55.996Z,21.77
2022-08-17T00:27:57.419Z,21.62
2022-08-17T00:30:59.732Z,21.63
2022-08-17T00:34:01.999Z,21.62
2022-08-17T00:37:03.517Z,22.26
2022-08-17T00:40:06.183Z,22.10
2022-08-17T00:43:14.921Z,22.16
2022-08-17T00:46:24.342Z,22.68
2022-08-17T00:49:26.335Z,22.25
2022-08-17T00:52:32.299Z,21.96
2022-08-17T00:55:34.508Z,22.02
2022-08-17T00:58:37.364Z,22.08
2022-08-17T01:01:39.784Z,22.20
2022-08-17T01:04:45.083Z,22.12
2022-08-17T01:07:50.709Z,22.02
2022-08-17T01:10:59.416Z,21.99
2022-08-17T01:14:04.096Z,21.97
2022-08-17T01:17:06.761Z,22.17
2022-08-17T01:20:09.122Z,22.36
2022-08-17T01:23:10.980Z,22.03
2022-08-17T01:26:18.235Z,21.58
2022-08-17T01:29:20.246Z,21.81
2022-08-17T01:32:21.821Z,21.66
2022-08-17T01:35:23.402Z,21.80
2022-08-17T01:38:27.392Z,21.86
2022-08-17T01:41:29.241Z,22.11
2022-08-17T01:44:30.742Z,22.13
2022-08-17T01:47:32.452Z,22.16
2022-08-17T01:50:40.904Z,22.14
2022-08-17T01:53:47.376Z,22.44
2022-08-17T01:56:51.459Z,22.37
2022-08-17T01:59:52.915Z,22.19
2022-08-17T02:02:54.434Z,22.14
2022-08-17T02:05:56.261Z,21.95
2022-08-17T02:09:03.578Z,22.20
2022-08-17T02:12:37.820Z,22.12
2022-08-17T02:15:29.108Z,22.32
2022-08-17T02:18:30.713Z,22.13
2022-08-17T02:21:32.480Z,22.12
2022-08-17T02:24:59.779Z,22.13
2022-08-17T02:27:59.897Z,22.31
2022-08-17T02:31:07.606Z,22.46
2022-08-17T02:34:09.486Z,22.44
2022-08-17T02:37:11.212Z,22.53
2022-08-17T02:40:12.634Z,22.63
2022-08-17T02:43:14.459Z,22.61
2022-08-17T02:46:15.908Z,22.36
2022-08-17T02:49:17.354Z,22.04
2022-08-17T02:52:19.005Z,22.49
2022-08-17T02:55:41.797Z,22.72
2022-08-17T02:58:43.259Z,21.82
2022-08-17T03:01:44.933Z,22.56
2022-08-17T03:04:46.450Z,22.58
2022-08-17T03:07:48.753Z,22.55
2022-08-17T03:10:50.685Z,22.46
2022-08-17T03:13:52.155Z,22.38
2022-08-17T03:16:53.704Z,22.20
2022-08-17T03:19:55.776Z,22.11
2022-08-17T03:23:02.975Z,21.98
2022-08-17T03:26:04.798Z,22.02
2022-08-17T03:29:18.817Z,21.87
2022-08-17T03:32:20.638Z,21.90
2022-08-17T03:35:25.458Z,21.99
2022-08-17T03:38:26.975Z,21.92
2022-08-17T03:41:28.612Z,21.90
2022-08-17T03:44:30.056Z,21.99
2022-08-17T03:47:50.197Z,22.06
2022-08-17T03:51:14.659Z,22.23
2022-08-17T03:54:35.059Z,22.30
2022-08-17T03:57:36.780Z,22.23
2022-08-17T04:00:39.770Z,22.19
2022-08-17T04:03:41.780Z,22.13
2022-08-17T04:06:43.146Z,22.27
2022-08-17T04:09:44.897Z,22.32
2022-08-17T04:12:54.469Z,22.27
2022-08-17T04:15:57.224Z,22.24
2022-08-17T04:18:58.994Z,22.31
2022-08-17T04:22:00.399Z,22.38
2022-08-17T04:25:09.001Z,22.28
2022-08-17T04:28:15.846Z,22.20
2022-08-17T04:31:17.880Z,22.26
2022-08-17T04:34:20.258Z,21.99
2022-08-17T04:37:22.027Z,21.87
2022-08-17T04:40:44.872Z,21.88
2022-08-17T04:43:48.824Z,21.90
2022-08-17T04:46:50.333Z,22.20
2022-08-17T04:49:53.465Z,22.12
2022-08-17T04:52:55.293Z,21.74
2022-08-17T04:55:58.928Z,21.55
2022-08-17T04:59:04.268Z,21.31
2022-08-17T05:02:05.722Z,20.98
2022-08-17T05:05:07.489Z,20.59
2022-08-17T05:08:09.188Z,20.37
2022-08-17T05:11:10.754Z,20.70
2022-08-17T05:14:12.801Z,20.86
2022-08-17T05:17:14.519Z,20.91
2022-08-17T05:20:16.428Z,21.00
2022-08-17T05:23:18.826Z,21.30
2022-08-17T05:26:25.989Z,20.90
2022-08-17T05:29:35.617Z,20.62
2022-08-17T05:32:40.298Z,20.80
2022-08-17T05:35:46.949Z,21.08
2022-08-17T05:38:48.551Z,21.29
2022-08-17T05:41:50.033Z,21.36
2022-08-17T05:44:51.476Z,21.27
2022-08-17T05:47:53.002Z,21.30
2022-08-17T05:51:19.654Z,21.30
2022-08-17T05:54:48.273Z,21.53
2022-08-17T05:58:11.276Z,21.54
2022-08-17T06:01:47.664Z,21.48
2022-08-17T06:05:11.100Z,21.39
2022-08-17T06:08:53.415Z,21.48
2022-08-17T06:12:14.484Z,21.25
2022-08-17T06:15:46.034Z,21.37
2022-08-17T06:19:00.598Z,21.36
2022-08-17T06:22:03.477Z,21.47
2022-08-17T06:25:12.783Z,21.36
2022-08-17T06:28:21.007Z,21.39
2022-08-17T06:31:29.015Z,21.55
2022-08-17T06:34:32.028Z,21.65
2022-08-17T06:38:05.445Z,21.42
2022-08-17T06:42:03.271Z,21.55
2022-08-17T06:45:15.378Z,21.21
2022-08-17T06:48:32.402Z,21.14
2022-08-17T06:51:43.356Z,21.36
2022-08-17T06:54:57.161Z,20.70
2022-08-17T06:58:05.849Z,20.68
2022-08-17T07:01:24.853Z,20.45
2022-08-17T07:04:31.161Z,20.50
2022-08-17T07:07:56.637Z,20.66
2022-08-17T07:11:04.885Z,20.90
2022-08-17T07:14:23.850Z,20.62
2022-08-17T07:17:46.779Z,20.96
2022-08-17T07:20:51.197Z,21.07
2022-08-17T07:24:06.677Z,20.79
2022-08-17T07:27:22.874Z,20.84
2022-08-17T07:30:44.675Z,20.85
2022-08-17T07:34:06.656Z,20.59
2022-08-17T07:37:08.150Z,20.58
2022-08-17T07:40:20.482Z,20.44
2022-08-17T07:43:32.037Z,20.79
2022-08-17T07:46:54.616Z,20.70
2022-08-17T07:49:56.124Z,20.86
2022-08-17T07:52:59.145Z,20.52
2022-08-17T07:56:00.607Z,20.93
2022-08-17T07:59:23.031Z,20.74
2022-08-17T08:02:33.898Z,20.89
2022-08-17T08:05:50.376Z,20.86
2022-08-17T08:08:55.957Z,21.06
2022-08-17T08:11:57.435Z,20.79
2022-08-17T08:15:18.663Z,21.24
2022-08-17T08:18:54.862Z,20.89
2022-08-17T08:22:18.096Z,21.00
2022-08-17T08:25:25.454Z,20.99
2022-08-17T08:28:30.284Z,20.90
2022-08-17T08:32:00.967Z,20.85
2022-08-17T08:35:10.704Z,20.51
2022-08-17T08:38:26.789Z,20.71
2022-08-17T08:41:52.210Z,20.73
2022-08-17T08:45:14.801Z,20.38
2022-08-17T08:48:56.189Z,20.60
2022-08-17T08:52:02.717Z,20.65
2022-08-17T08:55:26.412Z,20.50
2022-08-17T08:58:50.544Z,20.89
2022-08-17T09:02:00.142Z,21.12
2022-08-17T09:05:31.949Z,21.16
2022-08-17T09:09:15.673Z,21.28
2022-08-17T09:12:41.633Z,21.29
2022-08-17T09:15:47.896Z,21.27
2022-08-17T09:19:03.005Z,21.62
2022-08-17T09:22:31.308Z,21.88
2022-08-17T09:25:39.475Z,21.90
2022-08-17T09:28:48.185Z,21.43
2022-08-17T09:31:56.225Z,21.34
2022-08-17T09:35:03.731Z,21.39
2022-08-17T09:38:25.582Z,21.44
2022-08-17T09:42:02.630Z,21.58
2022-08-17T09:45:28.093Z,21.65
2022-08-17T09:48:44.141Z,21.30
2022-08-17T09:51:51.988Z,20.95
2022-08-17T09:54:55.508Z,21.47
2022-08-17T09:58:09.915Z,21.64
2022-08-17T10:01:39.699Z,21.68
2022-08-17T10:05:01.774Z,21.66
2022-08-17T10:08:15.039Z,21.62
2022-08-17T10:12:17.145Z,21.72
2022-08-17T10:15:40.141Z,21.93
2022-08-17T10:19:15.810Z,21.79
2022-08-17T10:22:51.195Z,21.93
2022-08-17T10:26:14.793Z,21.98
2022-08-17T10:29:25.211Z,22.32
2022-08-17T10:32:38.415Z,22.23
2022-08-17T10:36:01.203Z,22.80
2022-08-17T10:39:36.765Z,22.83
2022-08-17T10:43:04.352Z,22.32
2022-08-17T10:46:30.532Z,22.64
2022-08-17T10:49:47.430Z,22.83
2022-08-17T10:52:49.368Z,22.77
2022-08-17T10:56:12.875Z,22.82
2022-08-17T10:59:36.059Z,22.96
2022-08-17T11:02:49.707Z,23.20
2022-08-17T11:06:03.952Z,23.37
2022-08-17T11:09:31.602Z,23.53
2022-08-17T11:12:33.139Z,23.57
2022-08-17T11:16:02.373Z,23.56
2022-08-17T11:19:48.559Z,23.72
2022-08-17T11:23:10.161Z,24.18
2022-08-17T11:26:29.630Z,24.87
2022-08-17T11:29:51.960Z,26.03
2022-08-17T11:32:57.409Z,27.15
2022-08-17T11:36:26.972Z,27.00
2022-08-17T11:39:47.319Z,27.70
2022-08-17T11:43:07.915Z,27.54
2022-08-17T11:46:18.439Z,28.25
2022-08-17T11:50:18.154Z,28.56
2022-08-17T11:53:37.868Z,28.95
2022-08-17T11:56:47.196Z,29.05
2022-08-17T11:59:51.737Z,29.56
2022-08-17T12:03:26.359Z,28.94
2022-08-17T12:06:45.440Z,29.51
2022-08-17T12:09:50.850Z,28.80
2022-08-17T12:12:53.965Z,28.76
2022-08-17T12:15:56.596Z,28.67
2022-08-17T12:19:02.453Z,28.81
2022-08-17T12:22:07.958Z,28.93
2022-08-17T12:25:16.732Z,29.13
2022-08-17T12:28:24.757Z,28.80
2022-08-17T12:31:34.360Z,28.98
2022-08-17T12:34:36.010Z,27.95
2022-08-17T12:37:46.626Z,28.48
2022-08-17T12:40:58.028Z,28.54
2022-08-17T12:44:06.387Z,28.73
2022-08-17T12:47:22.342Z,28.89
2022-08-17T12:50:28.723Z,28.55
2022-08-17T12:53:35.193Z,28.36
2022-08-17T12:56:36.749Z,28.53
2022-08-17T12:59:43.117Z,28.44
2022-08-17T13:02:51.164Z,28.46
2022-08-17T13:05:52.550Z,28.25
2022-08-17T13:08:54.159Z,28.02
2022-08-17T13:12:01.637Z,27.68
2022-08-17T13:15:03.991Z,27.80
2022-08-17T13:18:28.436Z,27.50
2022-08-17T13:21:30.752Z,27.43
2022-08-17T13:24:38.017Z,27.56
2022-08-17T13:27:42.545Z,27.52
2022-08-17T13:30:44.465Z,27.49
2022-08-17T13:33:46.034Z,27.46
2022-08-17T13:36:48.760Z,27.43
2022-08-17T13:40:10.635Z,27.35
2022-08-17T13:43:12.320Z,27.21
2022-08-17T13:46:34.005Z,27.50
2022-08-17T13:49:49.048Z,27.56
2022-08-17T13:52:52.256Z,27.33
2022-08-17T13:56:00.651Z,26.98
2022-08-17T13:59:08.552Z,27.15
2022-08-17T14:02:11.219Z,26.99
2022-08-17T14:05:12.783Z,27.05
2022-08-17T14:08:16.157Z,27.50
2022-08-17T14:11:18.481Z,27.69
2022-08-17T14:14:23.167Z,27.79
2022-08-17T14:17:26.681Z,27.82
2022-08-17T14:20:28.160Z,27.89
2022-08-17T14:23:31.901Z,27.78
2022-08-17T14:26:33.352Z,27.78
2022-08-17T14:29:35.029Z,27.48
2022-08-17T14:32:38.056Z,27.28
2022-08-17T14:35:39.511Z,27.31
2022-08-17T14:38:40.873Z,27.47
2022-08-17T14:41:42.597Z,27.44
2022-08-17T14:44:44.111Z,27.22
2022-08-17T14:47:45.535Z,27.49
2022-08-17T14:50:47.129Z,27.39
2022-08-17T14:53:49.078Z,27.47
2022-08-17T14:56:59.201Z,27.32
2022-08-17T15:00:13.387Z,27.43
2022-08-17T15:03:16.176Z,27.62
2022-08-17T15:06:17.613Z,27.48
2022-08-17T15:09:19.059Z,27.39
2022-08-17T15:12:27.487Z,27.49
2022-08-17T15:15:34.057Z,27.60
2022-08-17T15:18:36.539Z,27.69
2022-08-17T15:21:38.052Z,27.58
2022-08-17T15:24:39.428Z,27.45
2022-08-17T15:27:41.444Z,27.67
2022-08-17T15:30:44.777Z,27.80
2022-08-17T15:33:46.286Z,27.95
2022-08-17T15:36:49.402Z,27.84
2022-08-17T15:39:51.697Z,27.42
2022-08-17T15:42:53.385Z,27.74
2022-08-17T15:46:03.623Z,27.78
2022-08-17T15:49:05.156Z,27.54
2022-08-17T15:52:17.017Z,27.33
2022-08-17T15:55:23.441Z,27.33
2022-08-17T15:58:29.867Z,27.03
2022-08-17T16:02:24.151Z,26.93
2022-08-17T16:05:10.050Z,26.77
2022-08-17T16:08:13.919Z,26.60
2022-08-17T16:11:18.734Z,26.72
2022-08-17T16:14:20.102Z,26.88
2022-08-17T16:17:38.633Z,27.04
2022-08-17T16:20:42.741Z,26.80
2022-08-17T16:23:44.282Z,26.68
2022-08-17T16:26:45.957Z,26.54
2022-08-17T16:29:48.192Z,26.36
2022-08-17T16:32:55.143Z,26.44
2022-08-17T16:35:56.684Z,26.52
2022-08-17T16:38:58.163Z,26.50
2022-08-17T16:42:01.311Z,26.23
2022-08-17T16:45:09.685Z,26.42
2022-08-17T16:48:11.923Z,26.48
2022-08-17T16:51:13.415Z,26.43
2022-08-17T16:54:17.679Z,26.33
2022-08-17T16:57:19.557Z,26.28
2022-08-17T17:00:21.195Z,26.39
2022-08-17T17:03:25.071Z,26.40
2022-08-17T17:07:00.998Z,26.29
2022-08-17T17:10:07.587Z,26.45
2022-08-17T17:13:37.174Z,26.52
2022-08-17T17:17:01.500Z,26.18
2022-08-17T17:20:02.885Z,26.16
2022-08-17T17:23:09.488Z,26.04
2022-08-17T17:26:50.634Z,26.15
2022-08-17T17:30:27.532Z,26.00
2022-08-17T17:33:40.394Z,25.66
2022-08-17T17:36:56.430Z,26.05
2022-08-17T17:40:03.562Z,26.12
2022-08-17T17:43:34.904Z,26.14
2022-08-17T17:46:33.752Z,25.81
2022-08-17T17:49:46.535Z,25.70
2022-08-17T17:52:55.815Z,25.91
2022-08-17T17:56:42.985Z,26.10
2022-08-17T17:59:59.478Z,25.84
2022-08-17T18:03:22.459Z,25.87
2022-08-17T18:06:36.242Z,25.58
2022-08-17T18:10:19.805Z,25.39
2022-08-17T18:13:53.544Z,25.28
2022-08-17T18:16:57.733Z,25.28
2022-08-17T18:19:59.741Z,25.26
2022-08-17T18:23:01.216Z,25.09
2022-08-17T18:26:02.932Z,24.99
2022-08-17T18:29:31.951Z,24.90
2022-08-17T18:32:39.900Z,24.91
2022-08-17T18:35:59.266Z,25.02
2022-08-17T18:39:27.987Z,24.81
2022-08-17T18:42:29.941Z,24.38
2022-08-17T18:45:44.584Z,24.44
2022-08-17T18:48:59.251Z,24.70
2022-08-17T18:52:36.416Z,24.96
2022-08-17T18:55:38.582Z,24.96
2022-08-17T18:58:40.132Z,25.04
2022-08-17T19:01:53.519Z,24.85
2022-08-17T19:05:27.077Z,25.06
2022-08-17T19:08:28.493Z,25.05
2022-08-17T19:11:34.124Z,25.12
2022-08-17T19:14:35.818Z,25.04
2022-08-17T19:17:51.009Z,25.15
2022-08-17T19:21:14.444Z,24.88
2022-08-17T19:24:22.105Z,25.05
2022-08-17T19:27:34.830Z,25.00
2022-08-17T19:30:43.456Z,25.11
2022-08-17T19:33:48.079Z,25.13
2022-08-17T19:36:52.584Z,25.07
2022-08-17T19:40:00.299Z,24.78
2022-08-17T19:43:18.276Z,24.60
2022-08-17T19:46:39.284Z,24.77
2022-08-17T19:49:49.883Z,24.80
2022-08-17T19:53:13.157Z,24.73
2022-08-17T19:56:22.207Z,24.76
2022-08-17T19:59:39.056Z,24.82
2022-08-17T20:03:07.112Z,24.83
2022-08-17T20:06:13.829Z,24.69
2022-08-17T20:09:37.746Z,24.64
2022-08-17T20:12:42.583Z,24.67
2022-08-17T20:15:45.962Z,24.74
2022-08-17T20:19:07.729Z,24.66
2022-08-17T20:22:22.767Z,24.67
2022-08-17T20:25:34.951Z,24.68
2022-08-17T20:28:39.112Z,24.56
2022-08-17T20:31:49.449Z,24.56
2022-08-17T20:35:04.154Z,24.37
2022-08-17T20:38:10.810Z,24.28
2022-08-17T20:41:31.876Z,24.21
2022-08-17T20:44:35.445Z,24.11
2022-08-17T20:48:15.316Z,24.09
2022-08-17T20:51:31.466Z,24.20
2022-08-17T20:54:45.008Z,24.12
2022-08-17T20:57:48.418Z,24.16
2022-08-17T21:00:56.236Z,24.03
2022-08-17T21:03:58.385Z,24.08
2022-08-17T21:07:43.444Z,23.91
2022-08-17T21:10:46.603Z,23.77
2022-08-17T21:14:07.264Z,23.69
2022-08-17T21:17:31.165Z,23.62
2022-08-17T21:20:58.776Z,23.53
2022-08-17T21:24:28.240Z,23.45
2022-08-17T21:27:49.944Z,23.48
2022-08-17T21:30:58.471Z,23.17
2022-08-17T21:34:15.246Z,23.09
2022-08-17T21:37:19.827Z,22.98
2022-08-17T21:40:27.785Z,22.67
2022-08-17T21:43:33.918Z,22.63
2022-08-17T21:46:39.769Z,22.31
2022-08-17T21:49:41.561Z,22.28
2022-08-17T21:52:43.171Z,22.21
2022-08-17T21:55:48.659Z,22.03
2022-08-17T21:59:25.891Z,22.01
2022-08-17T22:02:33.634Z,21.75
2022-08-17T22:05:37.871Z,21.41
2022-08-17T22:08:39.351Z,21.39
2022-08-17T22:12:02.909Z,21.39
2022-08-17T22:15:07.443Z,20.78
2022-08-17T22:18:20.062Z,20.78
2022-08-17T22:21:22.626Z,20.57
2022-08-17T22:24:26.858Z,19.94
2022-08-17T22:27:55.741Z,20.07
2022-08-17T22:31:03.441Z,20.43
2022-08-17T22:34:15.041Z,20.27
2022-08-17T22:37:28.636Z,19.97
2022-08-17T22:40:34.376Z,20.24
2022-08-17T22:43:38.401Z,20.44
2022-08-17T22:47:24.134Z,20.45
2022-08-17T22:50:29.646Z,20.57
2022-08-17T22:53:49.883Z,20.49
2022-08-17T22:57:20.037Z,20.51
2022-08-17T23:00:48.681Z,20.31
2022-08-17T23:03:58.925Z,20.24
2022-08-17T23:07:00.367Z,20.31
2022-08-17T23:10:06.313Z,20.26
2022-08-17T23:13:11.812Z,20.39
2022-08-17T23:16:14.782Z,19.72
2022-08-17T23:19:21.050Z,19.86
2022-08-17T23:22:23.576Z,20.15
2022-08-17T23:25:29.013Z,20.36
2022-08-17T23:28:30.520Z,20.30
2022-08-17T23:31:34.501Z,20.11
2022-08-17T23:34:37.454Z,20.12
2022-08-17T23:37:41.370Z,20.08
2022-08-17T23:40:42.910Z,20.17
2022-08-17T23:43:46.930Z,19.60
2022-08-17T23:46:48.403Z,19.48
2022-08-17T23:49:49.878Z,19.83
2022-08-17T23:52:55.696Z,20.05
2022-08-17T23:56:03.954Z,20.17
2022-08-17T23:59:13.511Z,19.97
